createdAt,value
2023-01-20T00:00:48.239Z,76.33
2023-01-20T00:04:08.816Z,76.33
2023-01-20T00:07:25.022Z,76.68
2023-01-20T00:10:40.825Z,76.62
2023-01-20T00:14:14.690Z,76.81
2023-01-20T00:17:39.744Z,77.26
2023-01-20T00:20:59.895Z,77.48
2023-01-20T00:24:13.496Z,76.86
2023-01-20T00:27:36.819Z,76.55
2023-01-20T00:31:07.808Z,77.49
2023-01-20T00:34:28.606Z,78.04
2023-01-20T00:37:38.721Z,77.35
2023-01-20T00:40:42.770Z,77.34
2023-01-20T00:43:46.512Z,77.39
2023-01-20T00:47:02.874Z,76.60
2023-01-20T00:50:09.943Z,77.06
2023-01-20T00:53:16.121Z,76.97
2023-01-20T00:56:25.891Z,76.90
2023-01-20T00:59:28.893Z,76.80
2023-01-20T01:02:39.744Z,76.92
2023-01-20T01:05:49.355Z,77.24
2023-01-20T01:08:53.226Z,76.28
2023-01-20T01:12:08.793Z,76.59
2023-01-20T01:15:36.568Z,77.03
2023-01-20T01:19:05.190Z,78.36
2023-01-20T01:22:08.294Z,77.66
2023-01-20T01:25:14.725Z,77.21
2023-01-20T01:28:22.041Z,77.80
2023-01-20T01:31:35.893Z,77.69
2023-01-20T01:34:58.589Z,77.75
2023-01-20T01:38:18.689Z,77.58
2023-01-20T01:41:38.556Z,77.16
2023-01-20T01:45:14.152Z,78.37
2023-01-20T01:48:32.548Z,79.49
2023-01-20T01:51:51.754Z,78.41
2023-01-20T01:55:02.755Z,78.63
2023-01-20T01:58:15.178Z,77.54
2023-01-20T02:01:21.362Z,78.20
2023-01-20T02:04:38.730Z,77.94
2023-01-20T02:07:55.469Z,77.58
2023-01-20T02:11:22.539Z,77.29
2023-01-20T02:14:45.352Z,78.06
2023-01-20T02:18:19.613Z,77.96
2023-01-20T02:21:59.859Z,77.89
2023-01-20T02:25:21.215Z,77.85
2023-01-20T02:28:35.799Z,77.57
2023-01-20T02:32:00.831Z,77.54
2023-01-20T02:35:42.868Z,77.46
2023-01-20T02:39:26.885Z,77.65
2023-01-20T02:42:41.240Z,77.75
2023-01-20T02:46:01.085Z,79.07
2023-01-20T02:49:20.944Z,78.56
2023-01-20T02:52:39.650Z,79.24
2023-01-20T02:56:04.294Z,79.69
2023-01-20T02:59:35.085Z,77.92
2023-01-20T03:02:41.004Z,77.93
2023-01-20T03:05:55.216Z,77.27
2023-01-20T03:09:16.672Z,79.01
2023-01-20T03:12:46.030Z,77.58
2023-01-20T03:16:02.351Z,77.54
2023-01-20T03:19:20.395Z,78.98
2023-01-20T03:22:28.397Z,77.32
2023-01-20T03:25:33.011Z,77.77
2023-01-20T03:28:48.591Z,76.50
2023-01-20T03:32:12.372Z,76.46
2023-01-20T03:35:35.234Z,76.53
2023-01-20T03:38:51.609Z,76.07
2023-01-20T03:42:19.398Z,77.01
2023-01-20T03:45:37.288Z,76.61
2023-01-20T03:49:16.579Z,76.18
2023-01-20T03:52:48.053Z,76.85
2023-01-20T03:55:54.663Z,76.94
2023-01-20T03:59:08.504Z,77.28
2023-01-20T04:02:22.532Z,77.14
2023-01-20T04:05:27.301Z,77.60
2023-01-20T04:08:37.135Z,78.76
2023-01-20T04:11:53.997Z,77.51
2023-01-20T04:15:17.384Z,77.43
2023-01-20T04:18:34.970Z,78.12
2023-01-20T04:22:04.954Z,77.46
2023-01-20T04:25:23.095Z,76.91
2023-01-20T04:28:44.971Z,76.70
2023-01-20T04:32:09.250Z,76.94
2023-01-20T04:35:26.200Z,77.26
2023-01-20T04:38:49.059Z,76.72
2023-01-20T04:42:12.064Z,77.20
2023-01-20T04:45:36.075Z,76.84
2023-01-20T04:48:46.513Z,77.01
2023-01-20T04:52:09.149Z,76.83
2023-01-20T04:55:43.247Z,76.58
2023-01-20T04:59:06.168Z,76.86
2023-01-20T05:02:27.040Z,77.07
2023-01-20T05:05:49.980Z,76.72
2023-01-20T05:09:11.034Z,77.34
2023-01-20T05:12:14.063Z,76.43
2023-01-20T05:15:17.183Z,77.31
2023-01-20T05:18:26.406Z,77.36
2023-01-20T05:21:49.443Z,77.78
2023-01-20T05:25:03.601Z,76.67
2023-01-20T05:28:19.047Z,77.26
2023-01-20T05:31:30.078Z,76.92
2023-01-20T05:34:33.402Z,77.27
2023-01-20T05:37:52.875Z,76.68
2023-01-20T05:41:15.859Z,77.07
2023-01-20T05:44:29.272Z,76.88
2023-01-20T05:47:44.865Z,76.65
2023-01-20T05:50:58.425Z,75.77
2023-01-20T05:54:02.258Z,76.16
2023-01-20T05:57:19.448Z,76.08
2023-01-20T06:00:34.935Z,75.97
2023-01-20T06:03:50.800Z,76.06
2023-01-20T06:07:24.763Z,75.88
2023-01-20T06:10:50.696Z,76.33
2023-01-20T06:14:11.745Z,76.38
2023-01-20T06:17:21.721Z,76.63
2023-01-20T06:20:25.451Z,76.67
2023-01-20T06:23:36.079Z,76.85
2023-01-20T06:26:42.543Z,76.92
2023-01-20T06:29:56.182Z,76.62
2023-01-20T06:33:08.827Z,76.57
2023-01-20T06:36:17.767Z,76.78
2023-01-20T06:39:31.711Z,76.25
2023-01-20T06:42:41.771Z,76.34
2023-01-20T06:46:06.004Z,76.21
2023-01-20T06:49:44.402Z,76.00
2023-01-20T06:53:19.540Z,76.53
2023-01-20T06:56:27.309Z,76.35
2023-01-20T06:59:44.944Z,76.18
2023-01-20T07:03:05.969Z,76.17
2023-01-20T07:06:47.819Z,75.89
2023-01-20T07:10:13.201Z,75.87
2023-01-20T07:13:17.268Z,75.59
2023-01-20T07:16:35.098Z,76.07
2023-01-20T07:19:39.564Z,75.96
2023-01-20T07:22:42.868Z,76.19
2023-01-20T07:26:07.828Z,75.89
2023-01-20T07:29:31.764Z,76.09
2023-01-20T07:32:59.450Z,75.52
2023-01-20T07:36:13.854Z,75.53
2023-01-20T07:39:22.753Z,75.29
2023-01-20T07:42:39.595Z,76.01
2023-01-20T07:46:02.582Z,75.77
2023-01-20T07:49:15.699Z,74.92
2023-01-20T07:52:32.952Z,76.26
2023-01-20T07:56:20.252Z,76.67
2023-01-20T07:59:42.508Z,75.49
2023-01-20T08:03:38.805Z,75.87
2023-01-20T08:10:59.302Z,75.21
2023-01-20T08:14:04.545Z,74.92
2023-01-20T08:23:15.460Z,74.78
2023-01-20T08:27:20.493Z,75.58
2023-01-20T08:30:32.129Z,75.10
2023-01-20T08:34:03.833Z,74.99
2023-01-20T08:37:07.834Z,75.30
2023-01-20T08:40:15.288Z,75.06
2023-01-20T08:43:29.628Z,75.14
2023-01-20T08:47:28.147Z,75.52
2023-01-20T08:50:33.358Z,75.38
2023-01-20T08:54:24.598Z,74.89
2023-01-20T09:06:55.175Z,73.78
2023-01-20T09:10:55.574Z,74.45
2023-01-20T09:19:12.157Z,74.00
2023-01-20T09:22:27.642Z,74.18
2023-01-20T09:31:17.868Z,73.61
2023-01-20T09:35:05.749Z,73.49
2023-01-20T09:44:10.833Z,73.19
2023-01-20T09:48:16.773Z,74.06
2023-01-20T09:52:06.521Z,74.12
2023-01-20T09:55:27.356Z,73.54
2023-01-20T09:59:08.948Z,75.00
2023-01-20T10:03:07.041Z,74.08
2023-01-20T10:06:25.188Z,73.42
2023-01-20T10:09:55.207Z,73.33
2023-01-20T10:13:53.600Z,74.06
2023-01-20T10:18:06.123Z,73.38
2023-01-20T10:21:46.896Z,73.43
2023-01-20T10:26:18.000Z,71.92
2023-01-20T10:35:54.482Z,71.82
2023-01-20T10:39:36.502Z,70.89
2023-01-20T10:43:04.602Z,70.75
2023-01-20T10:46:35.252Z,70.06
2023-01-20T10:49:49.781Z,70.68
2023-01-20T10:53:51.120Z,69.47
2023-01-20T10:57:18.203Z,69.57
2023-01-20T11:01:42.296Z,68.83
2023-01-20T11:05:00.315Z,69.14
2023-01-20T11:08:32.396Z,69.34
2023-01-20T11:11:44.721Z,69.11
2023-01-20T11:14:59.935Z,69.59
2023-01-20T11:18:26.764Z,69.45
2023-01-20T11:21:52.570Z,69.69
2023-01-20T11:29:57.193Z,70.33
2023-01-20T11:33:24.809Z,70.62
2023-01-20T11:37:00.847Z,71.65
2023-01-20T11:40:28.579Z,71.97
2023-01-20T11:43:40.496Z,72.20
2023-01-20T11:46:52.554Z,72.34
2023-01-20T11:50:09.725Z,71.45
2023-01-20T11:53:35.163Z,72.56
2023-01-20T11:57:09.008Z,73.65
2023-01-20T12:01:15.940Z,72.79
2023-01-20T12:04:38.717Z,72.12
2023-01-20T12:07:49.004Z,72.78
2023-01-20T12:11:02.839Z,72.39
2023-01-20T12:14:29.973Z,72.79
2023-01-20T12:17:40.054Z,72.36
2023-01-20T12:21:08.128Z,73.13
2023-01-20T12:25:08.999Z,73.96
2023-01-20T12:28:49.157Z,73.02
2023-01-20T12:31:59.528Z,71.73
2023-01-20T12:35:06.799Z,71.35
2023-01-20T12:38:19.074Z,71.76
2023-01-20T12:41:48.407Z,72.91
2023-01-20T12:45:18.562Z,72.47
2023-01-20T12:48:49.087Z,72.04
2023-01-20T12:52:07.425Z,72.10
2023-01-20T12:55:41.252Z,72.74
2023-01-20T12:58:55.125Z,73.91
2023-01-20T13:02:24.597Z,75.19
2023-01-20T13:06:01.334Z,75.40
2023-01-20T13:09:32.645Z,76.80
2023-01-20T13:13:31.415Z,79.25
2023-01-20T13:17:09.825Z,79.58
2023-01-20T13:20:25.265Z,79.67
2023-01-20T13:23:36.055Z,79.77
2023-01-20T13:26:50.984Z,78.84
2023-01-20T13:30:07.030Z,79.91
2023-01-20T13:33:36.848Z,80.65
2023-01-20T13:37:06.085Z,81.50
2023-01-20T13:40:42.471Z,81.02
2023-01-20T13:43:55.444Z,81.63
2023-01-20T13:47:08.326Z,80.75
2023-01-20T13:50:36.738Z,81.15
2023-01-20T13:53:51.012Z,81.55
2023-01-20T13:57:28.180Z,81.38
2023-01-20T14:00:32.199Z,82.25
2023-01-20T14:03:52.781Z,83.53
2023-01-20T14:07:10.115Z,82.65
2023-01-20T14:10:26.671Z,82.14
2023-01-20T14:13:55.649Z,82.32
2023-01-20T14:17:21.110Z,82.19
2023-01-20T14:20:37.779Z,82.61
2023-01-20T14:23:55.493Z,82.82
2023-01-20T14:27:18.398Z,82.71
2023-01-20T14:30:27.536Z,81.91
2023-01-20T14:33:34.625Z,82.66
2023-01-20T14:36:37.642Z,82.70
2023-01-20T14:39:51.332Z,83.00
2023-01-20T14:43:00.014Z,82.96
2023-01-20T14:46:10.938Z,82.69
2023-01-20T14:49:19.356Z,82.76
2023-01-20T14:52:31.289Z,81.96
2023-01-20T14:55:56.176Z,82.12
2023-01-20T14:58:59.733Z,82.45
2023-01-20T15:02:14.739Z,82.21
2023-01-20T15:05:31.424Z,82.27
2023-01-20T15:08:41.058Z,82.29
2023-01-20T15:11:58.517Z,83.83
2023-01-20T15:15:27.434Z,82.56
2023-01-20T15:18:50.341Z,82.68
2023-01-20T15:22:21.010Z,83.35
2023-01-20T15:25:36.171Z,83.40
2023-01-20T15:28:57.487Z,82.76
2023-01-20T15:32:12.390Z,83.64
2023-01-20T15:35:37.674Z,83.42
2023-01-20T15:38:59.333Z,83.68
2023-01-20T15:42:25.532Z,82.83
2023-01-20T15:45:28.750Z,82.88
2023-01-20T15:48:32.169Z,82.43
2023-01-20T15:51:45.991Z,82.22
2023-01-20T15:54:55.789Z,83.17
2023-01-20T15:58:27.157Z,82.83
2023-01-20T16:01:47.979Z,82.69
2023-01-20T16:04:57.841Z,83.46
2023-01-20T16:08:34.942Z,83.05
2023-01-20T16:11:56.771Z,83.08
2023-01-20T16:15:14.885Z,82.94
2023-01-20T16:18:23.780Z,83.37
2023-01-20T16:21:32.597Z,83.78
2023-01-20T16:24:38.750Z,83.35
2023-01-20T16:27:45.642Z,82.91
2023-01-20T16:31:06.234Z,82.66
2023-01-20T16:34:26.154Z,83.20
2023-01-20T16:37:33.279Z,83.01
2023-01-20T16:40:44.503Z,83.37
2023-01-20T16:43:59.086Z,83.52
2023-01-20T16:47:19.958Z,83.44
2023-01-20T16:50:36.339Z,83.85
2023-01-20T16:53:59.127Z,83.33
2023-01-20T16:57:24.945Z,83.17
2023-01-20T17:00:28.002Z,83.23
2023-01-20T17:03:31.993Z,84.10
2023-01-20T17:06:43.445Z,84.29
2023-01-20T17:09:49.606Z,83.79
2023-01-20T17:12:54.350Z,83.75
2023-01-20T17:15:59.289Z,84.39
2023-01-20T17:19:21.250Z,83.89
2023-01-20T17:22:45.299Z,83.92
2023-01-20T17:26:07.060Z,84.31
2023-01-20T17:29:27.943Z,83.99
2023-01-20T17:32:51.055Z,84.29
2023-01-20T17:36:04.014Z,84.40
2023-01-20T17:39:20.009Z,83.67
2023-01-20T17:42:57.058Z,84.45
2023-01-20T17:46:23.205Z,83.78
2023-01-20T17:49:26.118Z,83.99
2023-01-20T17:52:29.398Z,83.46
2023-01-20T17:55:39.756Z,83.21
2023-01-20T17:58:44.638Z,82.73
2023-01-20T18:01:52.487Z,83.07
2023-01-20T18:04:55.437Z,82.52
2023-01-20T18:08:05.741Z,82.50
2023-01-20T18:11:21.765Z,82.40
2023-01-20T18:14:29.063Z,82.47
2023-01-20T18:17:34.518Z,82.37
2023-01-20T18:20:57.881Z,81.68
2023-01-20T18:24:19.450Z,82.75
2023-01-20T18:27:29.847Z,82.62
2023-01-20T18:30:39.622Z,81.28
2023-01-20T18:33:52.172Z,82.05
2023-01-20T18:37:02.883Z,82.03
2023-01-20T18:40:11.160Z,81.64
2023-01-20T18:43:24.042Z,81.35
2023-01-20T18:46:28.681Z,81.44
2023-01-20T18:49:42.745Z,81.32
2023-01-20T18:52:45.733Z,81.45
2023-01-20T18:55:50.434Z,81.95
2023-01-20T18:58:56.063Z,81.30
2023-01-20T19:02:03.297Z,79.95
2023-01-20T19:05:07.690Z,80.55
2023-01-20T19:08:10.938Z,81.90
2023-01-20T19:11:29.827Z,80.91
2023-01-20T19:14:54.592Z,81.43
2023-01-20T19:18:16.562Z,81.27
2023-01-20T19:21:39.693Z,81.91
2023-01-20T19:25:02.683Z,81.64
2023-01-20T19:28:19.716Z,81.67
2023-01-20T19:31:43.801Z,81.28
2023-01-20T19:34:47.822Z,82.07
2023-01-20T19:37:57.424Z,81.70
2023-01-20T19:41:17.376Z,81.21
2023-01-20T19:44:20.815Z,81.94
2023-01-20T19:47:30.661Z,81.23
2023-01-20T19:50:36.939Z,80.49
2023-01-20T19:53:44.539Z,81.27
2023-01-20T19:57:01.772Z,80.51
2023-01-20T20:00:26.563Z,81.06
2023-01-20T20:03:29.964Z,81.53
2023-01-20T20:06:38.374Z,82.14
2023-01-20T20:09:42.561Z,82.07
2023-01-20T20:12:52.318Z,81.53
2023-01-20T20:16:06.137Z,81.55
2023-01-20T20:19:16.265Z,81.91
2023-01-20T20:22:23.539Z,82.12
2023-01-20T20:25:37.994Z,82.63
2023-01-20T20:28:58.526Z,83.01
2023-01-20T20:32:02.516Z,83.29
2023-01-20T20:35:07.392Z,82.14
2023-01-20T20:38:10.561Z,82.39
2023-01-20T20:41:35.464Z,81.66
2023-01-20T20:45:04.683Z,81.49
2023-01-20T20:48:14.018Z,81.49
2023-01-20T20:51:38.416Z,81.59
2023-01-20T20:55:15.396Z,81.55
2023-01-20T20:58:48.542Z,81.12
2023-01-20T21:02:01.387Z,81.00
2023-01-20T21:05:24.226Z,80.81
2023-01-20T21:08:45.264Z,82.29
2023-01-20T21:12:07.409Z,81.42
2023-01-20T21:15:24.258Z,81.70
2023-01-20T21:18:28.587Z,81.50
2023-01-20T21:21:33.272Z,81.71
2023-01-20T21:24:50.839Z,80.75
2023-01-20T21:27:57.903Z,82.13
2023-01-20T21:31:01.617Z,81.04
2023-01-20T21:34:06.969Z,80.55
2023-01-20T21:37:23.497Z,81.97
2023-01-20T21:40:45.575Z,81.99
2023-01-20T21:44:25.331Z,81.72
2023-01-20T21:47:34.000Z,82.14
2023-01-20T21:51:12.491Z,81.55
2023-01-20T21:54:16.424Z,82.31
2023-01-20T21:57:39.456Z,82.25
2023-01-20T22:01:03.390Z,81.75
2023-01-20T22:04:19.471Z,81.32
2023-01-20T22:07:44.360Z,81.00
2023-01-20T22:11:11.353Z,81.30
2023-01-20T22:14:34.301Z,82.29
2023-01-20T22:17:48.634Z,81.26
2023-01-20T22:21:09.440Z,81.03
2023-01-20T22:24:25.447Z,80.61
2023-01-20T22:27:48.199Z,80.73
2023-01-20T22:30:56.480Z,80.77
2023-01-20T22:34:06.620Z,81.79
2023-01-20T22:37:20.039Z,81.00
2023-01-20T22:40:41.929Z,80.67
2023-01-20T22:44:03.809Z,80.41
2023-01-20T22:47:25.799Z,80.30
2023-01-20T22:50:36.003Z,80.59
2023-01-20T22:53:59.049Z,81.07
2023-01-20T22:57:33.091Z,80.77
2023-01-20T23:00:57.889Z,80.82
2023-01-20T23:04:16.921Z,81.76
2023-01-20T23:07:38.941Z,81.13
2023-01-20T23:10:55.271Z,81.21
2023-01-20T23:14:13.787Z,80.20
2023-01-20T23:17:23.739Z,81.21
2023-01-20T23:20:26.914Z,80.39
2023-01-20T23:23:43.382Z,80.01
2023-01-20T23:26:53.399Z,79.97
2023-01-20T23:30:00.000Z,81.11
2023-01-20T23:33:08.299Z,81.42
2023-01-20T23:36:21.143Z,81.18
2023-01-20T23:39:24.676Z,81.23
2023-01-20T23:42:28.991Z,80.28
2023-01-20T23:45:38.970Z,80.09
2023-01-20T23:49:01.892Z,80.66
2023-01-20T23:52:37.955Z,80.50
2023-01-20T23:56:21.935Z,80.64
2023-01-20T23:59:45.920Z,79.87
